sensor_id;sensor_type;location;lat;lon;timestamp;P1;durP1;ratioP1;P2;durP2;ratioP2
7613;SDS011;3848;42.016;23.098;2022-10-10T00:00:20;23.80;;;22.10;;
7613;SDS011;3848;42.016;23.098;2022-10-10T00:02:47;24.70;;;22.80;;
7613;SDS011;3848;42.016;23.098;2022-10-10T00:05:14;26.63;;;24.97;;
7613;SDS011;3848;42.016;23.098;2022-10-10T00:07:41;25.97;;;24.37;;
7613;SDS011;3848;42.016;23.098;2022-10-10T00:10:09;28.27;;;26.47;;
7613;SDS011;3848;42.016;23.098;2022-10-10T00:12:35;30.33;;;28.27;;
7613;SDS011;3848;42.016;23.098;2022-10-10T00:15:04;28.73;;;27.03;;
7613;SDS011;3848;42.016;23.098;2022-10-10T00:17:31;30.23;;;28.27;;
7613;SDS011;3848;42.016;23.098;2022-10-10T00:19:58;29.67;;;27.67;;
7613;SDS011;3848;42.016;23.098;2022-10-10T00:22:25;31.03;;;29.00;;
7613;SDS011;3848;42.016;23.098;2022-10-10T00:24:52;30.63;;;28.73;;
7613;SDS011;3848;42.016;23.098;2022-10-10T00:27:19;31.10;;;28.97;;
7613;SDS011;3848;42.016;23.098;2022-10-10T00:29:45;31.77;;;29.77;;
7613;SDS011;3848;42.016;23.098;2022-10-10T00:32:13;30.07;;;28.17;;
7613;SDS011;3848;42.016;23.098;2022-10-10T00:34:40;29.73;;;27.63;;
7613;SDS011;3848;42.016;23.098;2022-10-10T00:37:07;30.27;;;28.07;;
7613;SDS011;3848;42.016;23.098;2022-10-10T00:39:34;30.07;;;27.97;;
7613;SDS011;3848;42.016;23.098;2022-10-10T00:42:01;30.47;;;28.67;;
7613;SDS011;3848;42.016;23.098;2022-10-10T00:44:27;31.77;;;29.47;;
7613;SDS011;3848;42.016;23.098;2022-10-10T00:46:54;31.37;;;29.10;;
7613;SDS011;3848;42.016;23.098;2022-10-10T00:49:23;30.27;;;28.43;;
7613;SDS011;3848;42.016;23.098;2022-10-10T00:51:54;31.00;;;28.80;;
7613;SDS011;3848;42.016;23.098;2022-10-10T00:54:22;32.50;;;30.30;;
7613;SDS011;3848;42.016;23.098;2022-10-10T00:56:52;30.73;;;28.67;;
7613;SDS011;3848;42.016;23.098;2022-10-10T00:59:21;30.50;;;28.30;;
7613;SDS011;3848;42.016;23.098;2022-10-10T01:01:49;31.87;;;29.67;;
7613;SDS011;3848;42.016;23.098;2022-10-10T01:04:31;30.50;;;28.57;;
7613;SDS011;3848;42.016;23.098;2022-10-10T01:07:00;31.10;;;28.93;;
7613;SDS011;3848;42.016;23.098;2022-10-10T01:09:29;31.33;;;29.13;;
7613;SDS011;3848;42.016;23.098;2022-10-10T01:12:00;31.37;;;29.23;;
7613;SDS011;3848;42.016;23.098;2022-10-10T01:14:40;29.00;;;27.03;;
7613;SDS011;3848;42.016;23.098;2022-10-10T01:17:13;31.47;;;29.30;;
7613;SDS011;3848;42.016;23.098;2022-10-10T01:19:57;31.23;;;28.80;;
7613;SDS011;3848;42.016;23.098;2022-10-10T01:22:45;31.43;;;28.97;;
7613;SDS011;3848;42.016;23.098;2022-10-10T01:25:28;31.23;;;28.73;;
7613;SDS011;3848;42.016;23.098;2022-10-10T01:28:02;31.50;;;29.30;;
7613;SDS011;3848;42.016;23.098;2022-10-10T01:30:37;30.67;;;28.57;;
7613;SDS011;3848;42.016;23.098;2022-10-10T01:33:07;33.57;;;31.47;;
7613;SDS011;3848;42.016;23.098;2022-10-10T01:35:42;32.07;;;30.07;;
7613;SDS011;3848;42.016;23.098;2022-10-10T01:38:19;31.23;;;29.17;;
7613;SDS011;3848;42.016;23.098;2022-10-10T01:40:55;30.30;;;28.30;;
7613;SDS011;3848;42.016;23.098;2022-10-10T01:43:28;29.80;;;27.67;;
7613;SDS011;3848;42.016;23.098;2022-10-10T01:45:57;29.70;;;27.80;;
7613;SDS011;3848;42.016;23.098;2022-10-10T01:48:25;30.67;;;28.37;;
7613;SDS011;3848;42.016;23.098;2022-10-10T01:51:02;30.10;;;28.17;;
7613;SDS011;3848;42.016;23.098;2022-10-10T01:53:41;30.43;;;28.27;;
7613;SDS011;3848;42.016;23.098;2022-10-10T01:56:15;28.80;;;27.00;;
7613;SDS011;3848;42.016;23.098;2022-10-10T01:58:56;29.43;;;27.50;;
7613;SDS011;3848;42.016;23.098;2022-10-10T02:01:38;28.80;;;26.70;;
7613;SDS011;3848;42.016;23.098;2022-10-10T02:04:12;31.40;;;29.20;;
7613;SDS011;3848;42.016;23.098;2022-10-10T02:06:46;30.60;;;28.50;;
7613;SDS011;3848;42.016;23.098;2022-10-10T02:09:18;30.80;;;28.80;;
7613;SDS011;3848;42.016;23.098;2022-10-10T02:11:51;30.10;;;27.87;;
7613;SDS011;3848;42.016;23.098;2022-10-10T02:14:21;28.53;;;26.67;;
7613;SDS011;3848;42.016;23.098;2022-10-10T02:16:52;28.17;;;26.37;;
7613;SDS011;3848;42.016;23.098;2022-10-10T02:19:21;26.93;;;25.13;;
7613;SDS011;3848;42.016;23.098;2022-10-10T02:21:50;28.77;;;26.80;;
7613;SDS011;3848;42.016;23.098;2022-10-10T02:24:18;28.80;;;26.90;;
7613;SDS011;3848;42.016;23.098;2022-10-10T02:26:49;27.43;;;25.67;;
7613;SDS011;3848;42.016;23.098;2022-10-10T02:29:21;27.90;;;25.93;;
7613;SDS011;3848;42.016;23.098;2022-10-10T02:31:55;28.87;;;26.70;;
7613;SDS011;3848;42.016;23.098;2022-10-10T02:34:28;29.30;;;27.10;;
7613;SDS011;3848;42.016;23.098;2022-10-10T02:36:59;29.17;;;26.97;;
7613;SDS011;3848;42.016;23.098;2022-10-10T02:39:30;27.67;;;25.87;;
7613;SDS011;3848;42.016;23.098;2022-10-10T02:42:00;27.13;;;25.33;;
7613;SDS011;3848;42.016;23.098;2022-10-10T02:44:28;30.27;;;28.27;;
7613;SDS011;3848;42.016;23.098;2022-10-10T02:46:57;29.90;;;27.70;;
7613;SDS011;3848;42.016;23.098;2022-10-10T02:49:25;29.33;;;27.17;;
7613;SDS011;3848;42.016;23.098;2022-10-10T02:51:52;28.87;;;26.77;;
7613;SDS011;3848;42.016;23.098;2022-10-10T02:54:19;28.97;;;27.00;;
7613;SDS011;3848;42.016;23.098;2022-10-10T02:56:46;28.33;;;26.33;;
7613;SDS011;3848;42.016;23.098;2022-10-10T02:59:13;29.10;;;27.10;;
7613;SDS011;3848;42.016;23.098;2022-10-10T03:01:40;27.80;;;26.00;;
7613;SDS011;3848;42.016;23.098;2022-10-10T03:04:08;29.20;;;27.17;;
7613;SDS011;3848;42.016;23.098;2022-10-10T03:06:36;30.40;;;27.63;;
7613;SDS011;3848;42.016;23.098;2022-10-10T03:09:03;27.53;;;25.53;;
7613;SDS011;3848;42.016;23.098;2022-10-10T03:11:31;27.30;;;25.60;;
7613;SDS011;3848;42.016;23.098;2022-10-10T03:13:58;29.03;;;26.93;;
7613;SDS011;3848;42.016;23.098;2022-10-10T03:16:24;31.57;;;28.87;;
7613;SDS011;3848;42.016;23.098;2022-10-10T03:18:51;32.73;;;30.23;;
7613;SDS011;3848;42.016;23.098;2022-10-10T03:21:19;32.00;;;29.57;;
7613;SDS011;3848;42.016;23.098;2022-10-10T03:23:46;32.57;;;29.97;;
7613;SDS011;3848;42.016;23.098;2022-10-10T03:26:13;32.80;;;30.17;;
7613;SDS011;3848;42.016;23.098;2022-10-10T03:28:40;31.43;;;29.13;;
7613;SDS011;3848;42.016;23.098;2022-10-10T03:31:07;33.97;;;31.13;;
7613;SDS011;3848;42.016;23.098;2022-10-10T03:33:33;33.03;;;30.63;;
7613;SDS011;3848;42.016;23.098;2022-10-10T03:36:00;31.47;;;28.93;;
7613;SDS011;3848;42.016;23.098;2022-10-10T03:38:28;30.57;;;28.27;;
7613;SDS011;3848;42.016;23.098;2022-10-10T03:40:55;30.37;;;27.97;;
7613;SDS011;3848;42.016;23.098;2022-10-10T03:43:22;30.07;;;27.87;;
7613;SDS011;3848;42.016;23.098;2022-10-10T03:45:49;26.43;;;24.33;;
7613;SDS011;3848;42.016;23.098;2022-10-10T03:48:16;26.33;;;23.77;;
7613;SDS011;3848;42.016;23.098;2022-10-10T03:50:42;24.30;;;22.33;;
7613;SDS011;3848;42.016;23.098;2022-10-10T03:53:09;22.20;;;20.40;;
7613;SDS011;3848;42.016;23.098;2022-10-10T03:55:39;22.90;;;21.00;;
7613;SDS011;3848;42.016;23.098;2022-10-10T03:58:06;22.93;;;20.70;;
7613;SDS011;3848;42.016;23.098;2022-10-10T04:00:33;23.20;;;21.20;;
7613;SDS011;3848;42.016;23.098;2022-10-10T04:02:59;25.23;;;22.87;;
7613;SDS011;3848;42.016;23.098;2022-10-10T04:05:30;25.03;;;23.07;;
7613;SDS011;3848;42.016;23.098;2022-10-10T04:07:58;25.93;;;23.83;;
7613;SDS011;3848;42.016;23.098;2022-10-10T04:10:25;26.03;;;24.10;;
7613;SDS011;3848;42.016;23.098;2022-10-10T04:12:53;23.50;;;21.50;;
7613;SDS011;3848;42.016;23.098;2022-10-10T04:15:20;24.87;;;22.80;;
7613;SDS011;3848;42.016;23.098;2022-10-10T04:17:47;23.77;;;21.90;;
7613;SDS011;3848;42.016;23.098;2022-10-10T04:20:14;22.50;;;20.27;;
7613;SDS011;3848;42.016;23.098;2022-10-10T04:22:41;22.23;;;20.70;;
7613;SDS011;3848;42.016;23.098;2022-10-10T04:25:08;21.87;;;19.87;;
7613;SDS011;3848;42.016;23.098;2022-10-10T04:27:35;21.90;;;20.37;;
7613;SDS011;3848;42.016;23.098;2022-10-10T04:30:04;23.63;;;21.83;;
7613;SDS011;3848;42.016;23.098;2022-10-10T04:32:32;22.37;;;20.77;;
7613;SDS011;3848;42.016;23.098;2022-10-10T04:34:58;24.23;;;22.23;;
7613;SDS011;3848;42.016;23.098;2022-10-10T04:37:25;23.87;;;22.00;;
7613;SDS011;3848;42.016;23.098;2022-10-10T04:39:52;24.90;;;22.80;;
7613;SDS011;3848;42.016;23.098;2022-10-10T04:42:19;24.77;;;22.93;;
7613;SDS011;3848;42.016;23.098;2022-10-10T04:44:46;24.33;;;22.33;;
7613;SDS011;3848;42.016;23.098;2022-10-10T04:47:14;24.13;;;22.07;;
7613;SDS011;3848;42.016;23.098;2022-10-10T04:49:41;24.77;;;22.87;;
7613;SDS011;3848;42.016;23.098;2022-10-10T04:52:08;25.23;;;23.03;;
7613;SDS011;3848;42.016;23.098;2022-10-10T04:54:34;27.57;;;25.17;;
7613;SDS011;3848;42.016;23.098;2022-10-10T04:57:01;29.50;;;27.53;;
7613;SDS011;3848;42.016;23.098;2022-10-10T04:59:28;27.57;;;25.10;;
7613;SDS011;3848;42.016;23.098;2022-10-10T05:01:55;28.83;;;26.23;;
7613;SDS011;3848;42.016;23.098;2022-10-10T05:04:23;29.50;;;26.57;;
7613;SDS011;3848;42.016;23.098;2022-10-10T05:06:51;28.33;;;25.83;;
7613;SDS011;3848;42.016;23.098;2022-10-10T05:09:17;30.83;;;27.80;;
7613;SDS011;3848;42.016;23.098;2022-10-10T05:11:44;27.63;;;25.23;;
7613;SDS011;3848;42.016;23.098;2022-10-10T05:14:11;27.13;;;24.50;;
7613;SDS011;3848;42.016;23.098;2022-10-10T05:16:39;27.67;;;24.70;;
7613;SDS011;3848;42.016;23.098;2022-10-10T05:19:06;28.20;;;25.17;;
7613;SDS011;3848;42.016;23.098;2022-10-10T05:21:37;29.10;;;26.37;;
7613;SDS011;3848;42.016;23.098;2022-10-10T05:24:04;24.20;;;21.80;;
7613;SDS011;3848;42.016;23.098;2022-10-10T05:29:06;28.33;;;25.70;;
7613;SDS011;3848;42.016;23.098;2022-10-10T05:31:33;24.83;;;22.43;;
7613;SDS011;3848;42.016;23.098;2022-10-10T05:33:59;26.90;;;22.00;;
7613;SDS011;3848;42.016;23.098;2022-10-10T05:36:26;31.97;;;28.83;;
7613;SDS011;3848;42.016;23.098;2022-10-10T05:38:54;24.63;;;22.40;;
7613;SDS011;3848;42.016;23.098;2022-10-10T05:41:21;23.70;;;21.30;;
7613;SDS011;3848;42.016;23.098;2022-10-10T05:43:48;25.07;;;21.53;;
7613;SDS011;3848;42.016;23.098;2022-10-10T05:46:15;23.80;;;21.30;;
7613;SDS011;3848;42.016;23.098;2022-10-10T05:48:44;21.50;;;19.40;;
7613;SDS011;3848;42.016;23.098;2022-10-10T05:51:12;29.87;;;24.07;;
7613;SDS011;3848;42.016;23.098;2022-10-10T05:53:38;23.63;;;21.30;;
7613;SDS011;3848;42.016;23.098;2022-10-10T05:56:07;22.43;;;20.13;;
7613;SDS011;3848;42.016;23.098;2022-10-10T05:58:34;22.70;;;20.70;;
7613;SDS011;3848;42.016;23.098;2022-10-10T06:01:01;22.97;;;20.87;;
7613;SDS011;3848;42.016;23.098;2022-10-10T06:03:29;23.07;;;20.90;;
7613;SDS011;3848;42.016;23.098;2022-10-10T06:05:56;21.60;;;19.33;;
7613;SDS011;3848;42.016;23.098;2022-10-10T06:08:23;22.57;;;20.27;;
7613;SDS011;3848;42.016;23.098;2022-10-10T06:10:50;26.73;;;24.30;;
7613;SDS011;3848;42.016;23.098;2022-10-10T06:13:19;25.07;;;22.67;;
7613;SDS011;3848;42.016;23.098;2022-10-10T06:15:49;24.20;;;21.90;;
7613;SDS011;3848;42.016;23.098;2022-10-10T06:18:16;25.17;;;22.83;;
7613;SDS011;3848;42.016;23.098;2022-10-10T06:20:43;24.73;;;22.17;;
7613;SDS011;3848;42.016;23.098;2022-10-10T06:23:10;25.57;;;22.37;;
7613;SDS011;3848;42.016;23.098;2022-10-10T06:25:36;26.43;;;23.87;;
7613;SDS011;3848;42.016;23.098;2022-10-10T06:28:03;30.10;;;21.67;;
7613;SDS011;3848;42.016;23.098;2022-10-10T06:30:31;23.57;;;21.60;;
7613;SDS011;3848;42.016;23.098;2022-10-10T06:32:59;23.87;;;21.77;;
7613;SDS011;3848;42.016;23.098;2022-10-10T06:35:26;25.50;;;23.10;;
7613;SDS011;3848;42.016;23.098;2022-10-10T06:37:53;25.50;;;23.30;;
7613;SDS011;3848;42.016;23.098;2022-10-10T06:40:20;26.70;;;24.07;;
7613;SDS011;3848;42.016;23.098;2022-10-10T06:42:47;28.57;;;26.07;;
7613;SDS011;3848;42.016;23.098;2022-10-10T06:45:14;29.50;;;27.03;;
7613;SDS011;3848;42.016;23.098;2022-10-10T06:47:42;29.73;;;27.03;;
7613;SDS011;3848;42.016;23.098;2022-10-10T06:50:09;29.73;;;27.23;;
7613;SDS011;3848;42.016;23.098;2022-10-10T06:52:36;31.07;;;28.37;;
7613;SDS011;3848;42.016;23.098;2022-10-10T06:55:03;31.00;;;27.77;;
7613;SDS011;3848;42.016;23.098;2022-10-10T06:57:30;28.83;;;26.57;;
7613;SDS011;3848;42.016;23.098;2022-10-10T06:59:57;31.17;;;28.60;;
7613;SDS011;3848;42.016;23.098;2022-10-10T07:02:24;32.80;;;29.87;;
7613;SDS011;3848;42.016;23.098;2022-10-10T07:04:53;30.53;;;28.03;;
7613;SDS011;3848;42.016;23.098;2022-10-10T07:07:21;28.90;;;26.23;;
7613;SDS011;3848;42.016;23.098;2022-10-10T07:09:49;24.80;;;22.87;;
7613;SDS011;3848;42.016;23.098;2022-10-10T07:12:17;26.77;;;24.33;;
7613;SDS011;3848;42.016;23.098;2022-10-10T07:14:43;25.00;;;22.90;;
7613;SDS011;3848;42.016;23.098;2022-10-10T07:17:10;27.40;;;25.10;;
7613;SDS011;3848;42.016;23.098;2022-10-10T07:19:37;25.00;;;22.67;;
7613;SDS011;3848;42.016;23.098;2022-10-10T07:22:06;25.40;;;23.10;;
7613;SDS011;3848;42.016;23.098;2022-10-10T07:24:33;25.67;;;23.13;;
7613;SDS011;3848;42.016;23.098;2022-10-10T07:27:01;24.80;;;22.40;;
7613;SDS011;3848;42.016;23.098;2022-10-10T07:29:28;25.80;;;23.50;;
7613;SDS011;3848;42.016;23.098;2022-10-10T07:31:55;25.13;;;22.70;;
7613;SDS011;3848;42.016;23.098;2022-10-10T07:34:22;30.37;;;27.43;;
7613;SDS011;3848;42.016;23.098;2022-10-10T07:36:51;25.30;;;22.97;;
7613;SDS011;3848;42.016;23.098;2022-10-10T07:39:20;26.90;;;24.23;;
7613;SDS011;3848;42.016;23.098;2022-10-10T07:41:48;25.90;;;23.27;;
7613;SDS011;3848;42.016;23.098;2022-10-10T07:44:16;27.07;;;24.70;;
7613;SDS011;3848;42.016;23.098;2022-10-10T07:46:43;27.10;;;24.93;;
7613;SDS011;3848;42.016;23.098;2022-10-10T07:49:10;25.33;;;23.20;;
7613;SDS011;3848;42.016;23.098;2022-10-10T07:51:37;33.43;;;28.13;;
7613;SDS011;3848;42.016;23.098;2022-10-10T07:54:04;28.60;;;25.80;;
7613;SDS011;3848;42.016;23.098;2022-10-10T07:56:32;27.80;;;25.47;;
7613;SDS011;3848;42.016;23.098;2022-10-10T07:58:59;27.63;;;24.97;;
7613;SDS011;3848;42.016;23.098;2022-10-10T08:01:26;25.40;;;23.40;;
7613;SDS011;3848;42.016;23.098;2022-10-10T08:03:54;28.70;;;26.53;;
7613;SDS011;3848;42.016;23.098;2022-10-10T08:06:21;27.60;;;25.17;;
7613;SDS011;3848;42.016;23.098;2022-10-10T08:08:48;26.47;;;23.97;;
7613;SDS011;3848;42.016;23.098;2022-10-10T08:11:15;29.33;;;26.80;;
7613;SDS011;3848;42.016;23.098;2022-10-10T08:13:44;33.80;;;30.90;;
7613;SDS011;3848;42.016;23.098;2022-10-10T08:16:10;30.57;;;28.23;;
7613;SDS011;3848;42.016;23.098;2022-10-10T08:18:37;29.00;;;26.90;;
7613;SDS011;3848;42.016;23.098;2022-10-10T08:21:05;31.93;;;29.10;;
7613;SDS011;3848;42.016;23.098;2022-10-10T08:23:33;32.23;;;29.77;;
7613;SDS011;3848;42.016;23.098;2022-10-10T08:26:00;33.37;;;30.93;;
7613;SDS011;3848;42.016;23.098;2022-10-10T08:28:28;32.43;;;29.60;;
7613;SDS011;3848;42.016;23.098;2022-10-10T08:30:57;29.30;;;26.87;;
7613;SDS011;3848;42.016;23.098;2022-10-10T08:33:24;29.80;;;27.20;;
7613;SDS011;3848;42.016;23.098;2022-10-10T08:35:52;25.40;;;23.40;;
7613;SDS011;3848;42.016;23.098;2022-10-10T08:38:19;25.77;;;23.67;;
7613;SDS011;3848;42.016;23.098;2022-10-10T08:40:46;26.47;;;24.40;;
7613;SDS011;3848;42.016;23.098;2022-10-10T08:43:17;26.80;;;24.80;;
7613;SDS011;3848;42.016;23.098;2022-10-10T08:45:54;24.67;;;22.77;;
7613;SDS011;3848;42.016;23.098;2022-10-10T08:48:27;24.57;;;22.60;;
7613;SDS011;3848;42.016;23.098;2022-10-10T08:50:57;24.07;;;22.17;;
7613;SDS011;3848;42.016;23.098;2022-10-10T08:53:27;23.70;;;21.80;;
7613;SDS011;3848;42.016;23.098;2022-10-10T08:55:58;23.57;;;21.73;;
7613;SDS011;3848;42.016;23.098;2022-10-10T08:58:28;25.37;;;23.27;;
7613;SDS011;3848;42.016;23.098;2022-10-10T09:01:01;25.33;;;23.20;;
7613;SDS011;3848;42.016;23.098;2022-10-10T09:03:36;24.23;;;22.43;;
7613;SDS011;3848;42.016;23.098;2022-10-10T09:09:02;26.57;;;24.13;;
7613;SDS011;3848;42.016;23.098;2022-10-10T09:11:40;24.03;;;22.33;;
7613;SDS011;3848;42.016;23.098;2022-10-10T09:14:21;23.50;;;21.73;;
7613;SDS011;3848;42.016;23.098;2022-10-10T09:16:59;23.60;;;21.90;;
7613;SDS011;3848;42.016;23.098;2022-10-10T09:19:37;23.10;;;21.47;;
7613;SDS011;3848;42.016;23.098;2022-10-10T09:22:09;22.67;;;20.70;;
7613;SDS011;3848;42.016;23.098;2022-10-10T09:24:41;24.27;;;22.43;;
7613;SDS011;3848;42.016;23.098;2022-10-10T09:27:14;25.93;;;24.03;;
7613;SDS011;3848;42.016;23.098;2022-10-10T09:29:46;24.83;;;22.77;;
7613;SDS011;3848;42.016;23.098;2022-10-10T09:32:20;30.23;;;23.77;;
7613;SDS011;3848;42.016;23.098;2022-10-10T09:34:49;25.03;;;23.00;;
7613;SDS011;3848;42.016;23.098;2022-10-10T09:37:22;26.57;;;24.50;;
7613;SDS011;3848;42.016;23.098;2022-10-10T09:39:51;29.27;;;27.17;;
7613;SDS011;3848;42.016;23.098;2022-10-10T09:42:24;30.30;;;28.47;;
7613;SDS011;3848;42.016;23.098;2022-10-10T09:44:56;27.60;;;25.83;;
7613;SDS011;3848;42.016;23.098;2022-10-10T09:47:24;30.73;;;28.27;;
7613;SDS011;3848;42.016;23.098;2022-10-10T09:49:51;27.97;;;25.97;;
7613;SDS011;3848;42.016;23.098;2022-10-10T09:52:22;28.77;;;26.67;;
7613;SDS011;3848;42.016;23.098;2022-10-10T09:54:52;34.53;;;32.17;;
7613;SDS011;3848;42.016;23.098;2022-10-10T09:57:24;30.70;;;28.60;;
7613;SDS011;3848;42.016;23.098;2022-10-10T09:59:54;33.67;;;31.17;;
7613;SDS011;3848;42.016;23.098;2022-10-10T10:02:22;33.07;;;30.67;;
7613;SDS011;3848;42.016;23.098;2022-10-10T10:04:52;32.03;;;29.97;;
7613;SDS011;3848;42.016;23.098;2022-10-10T10:07:22;37.00;;;34.70;;
7613;SDS011;3848;42.016;23.098;2022-10-10T10:09:52;35.93;;;33.63;;
7613;SDS011;3848;42.016;23.098;2022-10-10T10:12:21;36.77;;;34.27;;
7613;SDS011;3848;42.016;23.098;2022-10-10T10:14:50;36.53;;;34.27;;
7613;SDS011;3848;42.016;23.098;2022-10-10T10:17:23;30.20;;;28.27;;
7613;SDS011;3848;42.016;23.098;2022-10-10T10:19:51;31.03;;;28.93;;
7613;SDS011;3848;42.016;23.098;2022-10-10T10:22:22;34.33;;;32.43;;
7613;SDS011;3848;42.016;23.098;2022-10-10T10:24:51;27.87;;;26.07;;
7613;SDS011;3848;42.016;23.098;2022-10-10T10:27:19;28.20;;;26.57;;
7613;SDS011;3848;42.016;23.098;2022-10-10T10:29:47;28.43;;;26.80;;
7613;SDS011;3848;42.016;23.098;2022-10-10T10:32:17;29.37;;;27.67;;
7613;SDS011;3848;42.016;23.098;2022-10-10T10:40:39;26.67;;;25.10;;
7613;SDS011;3848;42.016;23.098;2022-10-10T10:43:26;24.73;;;23.43;;
7613;SDS011;3848;42.016;23.098;2022-10-10T10:46:07;27.73;;;25.97;;
7613;SDS011;3848;42.016;23.098;2022-10-10T10:48:43;27.13;;;25.50;;
7613;SDS011;3848;42.016;23.098;2022-10-10T10:51:23;25.03;;;23.53;;
7613;SDS011;3848;42.016;23.098;2022-10-10T10:54:06;28.53;;;26.83;;
7613;SDS011;3848;42.016;23.098;2022-10-10T10:56:45;26.13;;;24.13;;
7613;SDS011;3848;42.016;23.098;2022-10-10T10:59:20;24.83;;;23.43;;
7613;SDS011;3848;42.016;23.098;2022-10-10T11:01:56;22.13;;;20.83;;
7613;SDS011;3848;42.016;23.098;2022-10-10T11:04:48;25.73;;;24.30;;
7613;SDS011;3848;42.016;23.098;2022-10-10T11:07:28;25.57;;;24.10;;
7613;SDS011;3848;42.016;23.098;2022-10-10T11:10:06;22.77;;;21.57;;
7613;SDS011;3848;42.016;23.098;2022-10-10T11:12:43;25.27;;;23.93;;
7613;SDS011;3848;42.016;23.098;2022-10-10T11:15:19;26.83;;;25.13;;
7613;SDS011;3848;42.016;23.098;2022-10-10T11:17:54;24.37;;;22.87;;
7613;SDS011;3848;42.016;23.098;2022-10-10T11:20:27;30.17;;;28.50;;
7613;SDS011;3848;42.016;23.098;2022-10-10T11:22:59;29.40;;;27.60;;
7613;SDS011;3848;42.016;23.098;2022-10-10T11:25:31;27.43;;;25.63;;
7613;SDS011;3848;42.016;23.098;2022-10-10T11:28:03;31.53;;;29.20;;
7613;SDS011;3848;42.016;23.098;2022-10-10T11:30:38;27.33;;;24.93;;
7613;SDS011;3848;42.016;23.098;2022-10-10T11:33:09;27.40;;;25.70;;
7613;SDS011;3848;42.016;23.098;2022-10-10T11:35:42;26.30;;;24.80;;
7613;SDS011;3848;42.016;23.098;2022-10-10T11:38:19;22.13;;;20.93;;
7613;SDS011;3848;42.016;23.098;2022-10-10T11:41:11;21.00;;;19.80;;
7613;SDS011;3848;42.016;23.098;2022-10-10T11:43:42;22.27;;;20.77;;
7613;SDS011;3848;42.016;23.098;2022-10-10T11:46:15;21.40;;;20.20;;
7613;SDS011;3848;42.016;23.098;2022-10-10T11:48:50;23.40;;;21.90;;
7613;SDS011;3848;42.016;23.098;2022-10-10T11:51:27;22.87;;;21.30;;
7613;SDS011;3848;42.016;23.098;2022-10-10T11:54:03;23.30;;;21.90;;
7613;SDS011;3848;42.016;23.098;2022-10-10T11:56:36;27.50;;;25.80;;
7613;SDS011;3848;42.016;23.098;2022-10-10T11:59:10;23.80;;;22.20;;
7613;SDS011;3848;42.016;23.098;2022-10-10T12:01:44;25.97;;;24.37;;
7613;SDS011;3848;42.016;23.098;2022-10-10T12:04:13;24.43;;;22.93;;
7613;SDS011;3848;42.016;23.098;2022-10-10T12:06:41;24.00;;;22.67;;
7613;SDS011;3848;42.016;23.098;2022-10-10T12:09:15;27.03;;;25.43;;
7613;SDS011;3848;42.016;23.098;2022-10-10T12:11:48;28.83;;;27.07;;
7613;SDS011;3848;42.016;23.098;2022-10-10T12:14:21;29.43;;;27.37;;
7613;SDS011;3848;42.016;23.098;2022-10-10T12:16:50;27.47;;;25.73;;
7613;SDS011;3848;42.016;23.098;2022-10-10T12:19:18;29.60;;;26.97;;
7613;SDS011;3848;42.016;23.098;2022-10-10T12:21:54;25.47;;;23.97;;
7613;SDS011;3848;42.016;23.098;2022-10-10T12:24:27;28.90;;;27.20;;
7613;SDS011;3848;42.016;23.098;2022-10-10T12:32:46;23.87;;;22.23;;
7613;SDS011;3848;42.016;23.098;2022-10-10T12:35:29;22.40;;;21.00;;
7613;SDS011;3848;42.016;23.098;2022-10-10T12:38:11;25.20;;;23.63;;
7613;SDS011;3848;42.016;23.098;2022-10-10T12:43:48;22.27;;;20.77;;
7613;SDS011;3848;42.016;23.098;2022-10-10T12:46:21;21.20;;;19.90;;
7613;SDS011;3848;42.016;23.098;2022-10-10T12:51:41;28.13;;;26.10;;
7613;SDS011;3848;42.016;23.098;2022-10-10T12:54:18;26.80;;;24.97;;
7613;SDS011;3848;42.016;23.098;2022-10-10T12:56:50;26.77;;;25.17;;
7613;SDS011;3848;42.016;23.098;2022-10-10T12:59:25;26.47;;;24.77;;
7613;SDS011;3848;42.016;23.098;2022-10-10T13:01:54;26.40;;;24.60;;
7613;SDS011;3848;42.016;23.098;2022-10-10T13:04:22;27.57;;;25.97;;
7613;SDS011;3848;42.016;23.098;2022-10-10T13:06:54;30.00;;;28.00;;
7613;SDS011;3848;42.016;23.098;2022-10-10T13:09:24;27.43;;;25.80;;
7613;SDS011;3848;42.016;23.098;2022-10-10T13:11:54;25.87;;;24.47;;
7613;SDS011;3848;42.016;23.098;2022-10-10T13:14:23;29.20;;;27.30;;
7613;SDS011;3848;42.016;23.098;2022-10-10T13:16:52;24.47;;;22.97;;
7613;SDS011;3848;42.016;23.098;2022-10-10T13:19:20;27.43;;;25.70;;
7613;SDS011;3848;42.016;23.098;2022-10-10T13:21:49;27.73;;;26.03;;
7613;SDS011;3848;42.016;23.098;2022-10-10T13:24:18;29.50;;;27.70;;
7613;SDS011;3848;42.016;23.098;2022-10-10T13:26:52;27.00;;;25.27;;
7613;SDS011;3848;42.016;23.098;2022-10-10T13:29:23;26.40;;;24.80;;
7613;SDS011;3848;42.016;23.098;2022-10-10T13:31:56;21.77;;;20.53;;
7613;SDS011;3848;42.016;23.098;2022-10-10T13:34:26;22.83;;;21.30;;
7613;SDS011;3848;42.016;23.098;2022-10-10T13:36:55;22.00;;;20.57;;
7613;SDS011;3848;42.016;23.098;2022-10-10T13:39:24;21.23;;;19.53;;
7613;SDS011;3848;42.016;23.098;2022-10-10T13:41:52;21.63;;;19.93;;
7613;SDS011;3848;42.016;23.098;2022-10-10T13:44:20;23.67;;;21.93;;
7613;SDS011;3848;42.016;23.098;2022-10-10T13:46:49;20.53;;;19.13;;
7613;SDS011;3848;42.016;23.098;2022-10-10T13:49:22;20.53;;;19.13;;
7613;SDS011;3848;42.016;23.098;2022-10-10T13:51:58;20.47;;;19.13;;
7613;SDS011;3848;42.016;23.098;2022-10-10T13:54:34;22.23;;;20.53;;
7613;SDS011;3848;42.016;23.098;2022-10-10T13:57:03;21.63;;;20.23;;
7613;SDS011;3848;42.016;23.098;2022-10-10T13:59:36;23.60;;;21.57;;
7613;SDS011;3848;42.016;23.098;2022-10-10T14:02:07;21.20;;;19.73;;
7613;SDS011;3848;42.016;23.098;2022-10-10T14:04:43;23.90;;;21.87;;
7613;SDS011;3848;42.016;23.098;2022-10-10T14:07:12;21.27;;;19.67;;
7613;SDS011;3848;42.016;23.098;2022-10-10T14:09:43;20.73;;;19.43;;
7613;SDS011;3848;42.016;23.098;2022-10-10T14:12:15;23.33;;;21.63;;
7613;SDS011;3848;42.016;23.098;2022-10-10T14:14:49;23.80;;;22.27;;
7613;SDS011;3848;42.016;23.098;2022-10-10T14:17:17;22.27;;;20.67;;
7613;SDS011;3848;42.016;23.098;2022-10-10T14:19:46;20.67;;;19.30;;
7613;SDS011;3848;42.016;23.098;2022-10-10T14:22:14;21.17;;;19.93;;
7613;SDS011;3848;42.016;23.098;2022-10-10T14:24:41;20.83;;;19.47;;
7613;SDS011;3848;42.016;23.098;2022-10-10T14:27:12;20.03;;;18.80;;
7613;SDS011;3848;42.016;23.098;2022-10-10T14:29:41;20.60;;;19.07;;
7613;SDS011;3848;42.016;23.098;2022-10-10T14:32:09;20.67;;;19.47;;
7613;SDS011;3848;42.016;23.098;2022-10-10T14:34:36;19.83;;;18.63;;
7613;SDS011;3848;42.016;23.098;2022-10-10T14:37:04;18.93;;;17.73;;
7613;SDS011;3848;42.016;23.098;2022-10-10T14:39:31;20.17;;;18.80;;
7613;SDS011;3848;42.016;23.098;2022-10-10T14:41:59;18.87;;;17.57;;
7613;SDS011;3848;42.016;23.098;2022-10-10T14:44:27;20.60;;;19.20;;
7613;SDS011;3848;42.016;23.098;2022-10-10T14:46:54;19.17;;;17.53;;
7613;SDS011;3848;42.016;23.098;2022-10-10T14:49:20;20.07;;;18.67;;
7613;SDS011;3848;42.016;23.098;2022-10-10T14:51:47;20.07;;;18.77;;
7613;SDS011;3848;42.016;23.098;2022-10-10T14:54:16;19.87;;;18.17;;
7613;SDS011;3848;42.016;23.098;2022-10-10T14:56:43;18.50;;;17.17;;
7613;SDS011;3848;42.016;23.098;2022-10-10T14:59:14;19.07;;;17.67;;
7613;SDS011;3848;42.016;23.098;2022-10-10T15:01:43;18.10;;;17.00;;
7613;SDS011;3848;42.016;23.098;2022-10-10T15:04:10;18.90;;;17.47;;
7613;SDS011;3848;42.016;23.098;2022-10-10T15:06:37;17.33;;;16.20;;
7613;SDS011;3848;42.016;23.098;2022-10-10T15:09:04;17.57;;;16.47;;
7613;SDS011;3848;42.016;23.098;2022-10-10T15:11:32;18.47;;;17.00;;